sensor_id;sensor_type;location;lat;lon;timestamp;temperature;humidity
9482;DHT22;4779;48.062;11.672;2023-03-14T00:02:27;10.10;99.90
9482;DHT22;4779;48.062;11.672;2023-03-14T00:04:54;10.10;99.90
9482;DHT22;4779;48.062;11.672;2023-03-14T00:07:22;10.10;99.90
9482;DHT22;4779;48.062;11.672;2023-03-14T00:09:50;10.00;99.90
9482;DHT22;4779;48.062;11.672;2023-03-14T00:12:17;10.00;99.90
9482;DHT22;4779;48.062;11.672;2023-03-14T00:14:44;9.90;99.90
9482;DHT22;4779;48.062;11.672;2023-03-14T00:17:11;9.90;99.90
9482;DHT22;4779;48.062;11.672;2023-03-14T00:19:40;9.90;99.90
9482;DHT22;4779;48.062;11.672;2023-03-14T00:22:07;9.90;99.90
9482;DHT22;4779;48.062;11.672;2023-03-14T00:24:34;9.90;99.90
9482;DHT22;4779;48.062;11.672;2023-03-14T00:27:01;9.80;99.90
9482;DHT22;4779;48.062;11.672;2023-03-14T00:29:28;9.80;99.90
9482;DHT22;4779;48.062;11.672;2023-03-14T00:31:55;9.90;99.90
9482;DHT22;4779;48.062;11.672;2023-03-14T00:34:21;9.90;99.90
9482;DHT22;4779;48.062;11.672;2023-03-14T00:36:50;9.90;99.90
9482;DHT22;4779;48.062;11.672;2023-03-14T00:39:16;9.90;99.90
9482;DHT22;4779;48.062;11.672;2023-03-14T00:41:43;9.90;99.90
9482;DHT22;4779;48.062;11.672;2023-03-14T00:44:10;9.90;99.90
9482;DHT22;4779;48.062;11.672;2023-03-14T00:46:37;10.00;99.90
9482;DHT22;4779;48.062;11.672;2023-03-14T00:49:04;10.00;99.90
9482;DHT22;4779;48.062;11.672;2023-03-14T00:51:31;10.00;99.90
9482;DHT22;4779;48.062;11.672;2023-03-14T00:53:59;10.00;99.90
9482;DHT22;4779;48.062;11.672;2023-03-14T00:56:26;10.00;99.90
9482;DHT22;4779;48.062;11.672;2023-03-14T00:58:54;9.90;99.90
9482;DHT22;4779;48.062;11.672;2023-03-14T01:01:22;10.00;99.90
9482;DHT22;4779;48.062;11.672;2023-03-14T01:03:51;9.90;99.90
9482;DHT22;4779;48.062;11.672;2023-03-14T01:06:20;9.90;99.90
9482;DHT22;4779;48.062;11.672;2023-03-14T01:08:47;9.90;99.90
9482;DHT22;4779;48.062;11.672;2023-03-14T01:11:18;9.90;99.90
9482;DHT22;4779;48.062;11.672;2023-03-14T01:13:45;9.90;99.90
9482;DHT22;4779;48.062;11.672;2023-03-14T01:16:13;9.90;99.90
9482;DHT22;4779;48.062;11.672;2023-03-14T01:18:42;9.90;99.90
9482;DHT22;4779;48.062;11.672;2023-03-14T01:21:12;9.90;99.90
9482;DHT22;4779;48.062;11.672;2023-03-14T01:23:39;9.80;99.90
9482;DHT22;4779;48.062;11.672;2023-03-14T01:26:09;9.80;99.90
9482;DHT22;4779;48.062;11.672;2023-03-14T01:28:37;9.80;99.90
9482;DHT22;4779;48.062;11.672;2023-03-14T01:31:06;9.70;99.90
9482;DHT22;4779;48.062;11.672;2023-03-14T01:33:33;9.70;99.90
9482;DHT22;4779;48.062;11.672;2023-03-14T01:36:00;9.60;99.90
9482;DHT22;4779;48.062;11.672;2023-03-14T01:38:27;9.60;99.90
9482;DHT22;4779;48.062;11.672;2023-03-14T01:40:54;9.60;99.90
9482;DHT22;4779;48.062;11.672;2023-03-14T01:43:21;9.60;99.90
9482;DHT22;4779;48.062;11.672;2023-03-14T01:46:20;9.60;99.90
9482;DHT22;4779;48.062;11.672;2023-03-14T01:48:54;9.50;99.90
9482;DHT22;4779;48.062;11.672;2023-03-14T01:51:28;9.50;99.90
9482;DHT22;4779;48.062;11.672;2023-03-14T01:54:01;9.50;99.90
9482;DHT22;4779;48.062;11.672;2023-03-14T01:56:29;9.50;99.90
9482;DHT22;4779;48.062;11.672;2023-03-14T01:58:58;9.50;99.90
9482;DHT22;4779;48.062;11.672;2023-03-14T02:01:28;9.50;99.90
9482;DHT22;4779;48.062;11.672;2023-03-14T02:03:59;9.50;99.90
9482;DHT22;4779;48.062;11.672;2023-03-14T02:06:31;9.40;99.90
9482;DHT22;4779;48.062;11.672;2023-03-14T02:09:01;9.40;99.90
9482;DHT22;4779;48.062;11.672;2023-03-14T02:11:30;9.40;99.90
9482;DHT22;4779;48.062;11.672;2023-03-14T02:13:58;9.40;99.90
9482;DHT22;4779;48.062;11.672;2023-03-14T02:16:25;9.50;99.90
9482;DHT22;4779;48.062;11.672;2023-03-14T02:18:54;9.40;99.90
9482;DHT22;4779;48.062;11.672;2023-03-14T02:21:26;9.30;99.90
9482;DHT22;4779;48.062;11.672;2023-03-14T02:24:01;9.20;99.90
9482;DHT22;4779;48.062;11.672;2023-03-14T02:26:34;9.20;99.90
9482;DHT22;4779;48.062;11.672;2023-03-14T02:29:05;9.10;99.90
9482;DHT22;4779;48.062;11.672;2023-03-14T03:02:37;8.80;99.90
9482;DHT22;4779;48.062;11.672;2023-03-14T03:28:09;8.50;99.90
9482;DHT22;4779;48.062;11.672;2023-03-14T03:30:39;8.50;99.90
9482;DHT22;4779;48.062;11.672;2023-03-14T03:33:06;8.40;99.90
9482;DHT22;4779;48.062;11.672;2023-03-14T03:35:33;8.40;99.90
9482;DHT22;4779;48.062;11.672;2023-03-14T03:38:00;8.40;99.90
9482;DHT22;4779;48.062;11.672;2023-03-14T03:40:27;8.30;99.90
9482;DHT22;4779;48.062;11.672;2023-03-14T03:42:54;8.40;99.90
9482;DHT22;4779;48.062;11.672;2023-03-14T03:45:22;8.40;99.90
9482;DHT22;4779;48.062;11.672;2023-03-14T03:47:49;8.40;99.90
9482;DHT22;4779;48.062;11.672;2023-03-14T03:50:16;8.30;99.90
9482;DHT22;4779;48.062;11.672;2023-03-14T03:52:43;8.30;99.90
9482;DHT22;4779;48.062;11.672;2023-03-14T03:55:10;8.20;99.90
9482;DHT22;4779;48.062;11.672;2023-03-14T03:57:37;8.20;99.90
9482;DHT22;4779;48.062;11.672;2023-03-14T04:00:05;8.20;99.90
9482;DHT22;4779;48.062;11.672;2023-03-14T04:02:36;8.20;99.90
9482;DHT22;4779;48.062;11.672;2023-03-14T04:05:03;8.20;99.90
9482;DHT22;4779;48.062;11.672;2023-03-14T04:07:31;8.20;99.90
9482;DHT22;4779;48.062;11.672;2023-03-14T04:09:58;8.20;99.90
9482;DHT22;4779;48.062;11.672;2023-03-14T04:12:25;8.10;99.90
9482;DHT22;4779;48.062;11.672;2023-03-14T04:14:52;8.10;99.90
9482;DHT22;4779;48.062;11.672;2023-03-14T04:17:19;8.00;99.90
9482;DHT22;4779;48.062;11.672;2023-03-14T04:19:47;8.00;99.90
9482;DHT22;4779;48.062;11.672;2023-03-14T04:22:16;8.00;99.90
9482;DHT22;4779;48.062;11.672;2023-03-14T04:24:43;7.90;99.90
9482;DHT22;4779;48.062;11.672;2023-03-14T04:27:10;7.90;99.90
9482;DHT22;4779;48.062;11.672;2023-03-14T04:29:37;7.90;99.90
9482;DHT22;4779;48.062;11.672;2023-03-14T04:32:04;7.90;99.90
9482;DHT22;4779;48.062;11.672;2023-03-14T04:34:31;7.90;99.90
9482;DHT22;4779;48.062;11.672;2023-03-14T04:36:59;7.90;99.90
9482;DHT22;4779;48.062;11.672;2023-03-14T04:39:26;7.90;99.90
9482;DHT22;4779;48.062;11.672;2023-03-14T04:41:53;7.90;99.90
9482;DHT22;4779;48.062;11.672;2023-03-14T04:44:20;7.90;99.90
9482;DHT22;4779;48.062;11.672;2023-03-14T04:46:47;7.90;99.90
9482;DHT22;4779;48.062;11.672;2023-03-14T04:49:14;7.90;99.90
9482;DHT22;4779;48.062;11.672;2023-03-14T04:51:41;7.90;99.90
9482;DHT22;4779;48.062;11.672;2023-03-14T04:54:09;7.90;99.90
9482;DHT22;4779;48.062;11.672;2023-03-14T04:56:36;7.80;99.90
9482;DHT22;4779;48.062;11.672;2023-03-14T04:59:03;7.80;99.90
9482;DHT22;4779;48.062;11.672;2023-03-14T05:01:30;7.80;99.90
9482;DHT22;4779;48.062;11.672;2023-03-14T05:03:57;7.80;99.90
9482;DHT22;4779;48.062;11.672;2023-03-14T05:06:24;7.80;99.90
9482;DHT22;4779;48.062;11.672;2023-03-14T05:08:51;7.80;99.90
9482;DHT22;4779;48.062;11.672;2023-03-14T05:11:19;7.80;99.90
9482;DHT22;4779;48.062;11.672;2023-03-14T05:13:46;7.80;99.90
9482;DHT22;4779;48.062;11.672;2023-03-14T05:16:13;7.80;99.90
9482;DHT22;4779;48.062;11.672;2023-03-14T05:18:40;7.80;99.90
9482;DHT22;4779;48.062;11.672;2023-03-14T05:21:07;7.80;99.90
9482;DHT22;4779;48.062;11.672;2023-03-14T05:23:34;7.80;99.90
9482;DHT22;4779;48.062;11.672;2023-03-14T05:26:01;7.80;99.90
9482;DHT22;4779;48.062;11.672;2023-03-14T05:28:29;7.80;99.90
9482;DHT22;4779;48.062;11.672;2023-03-14T05:30:56;7.70;99.90
9482;DHT22;4779;48.062;11.672;2023-03-14T05:33:23;7.70;99.90
9482;DHT22;4779;48.062;11.672;2023-03-14T05:35:50;7.80;99.90
9482;DHT22;4779;48.062;11.672;2023-03-14T05:38:17;7.80;99.90
9482;DHT22;4779;48.062;11.672;2023-03-14T05:40:44;7.70;99.90
9482;DHT22;4779;48.062;11.672;2023-03-14T05:43:11;7.80;99.90
9482;DHT22;4779;48.062;11.672;2023-03-14T05:45:40;7.80;99.90
9482;DHT22;4779;48.062;11.672;2023-03-14T05:48:07;7.80;99.90
9482;DHT22;4779;48.062;11.672;2023-03-14T05:50:34;7.80;99.90
9482;DHT22;4779;48.062;11.672;2023-03-14T05:53:01;7.80;99.90
9482;DHT22;4779;48.062;11.672;2023-03-14T05:55:28;7.80;99.90
9482;DHT22;4779;48.062;11.672;2023-03-14T05:57:55;7.80;99.90
9482;DHT22;4779;48.062;11.672;2023-03-14T06:00:22;7.80;99.90
9482;DHT22;4779;48.062;11.672;2023-03-14T06:02:50;7.80;99.90
9482;DHT22;4779;48.062;11.672;2023-03-14T06:05:17;7.80;99.90
9482;DHT22;4779;48.062;11.672;2023-03-14T06:07:44;7.80;99.90
9482;DHT22;4779;48.062;11.672;2023-03-14T06:10:11;7.80;99.90
9482;DHT22;4779;48.062;11.672;2023-03-14T06:12:38;7.80;99.90
9482;DHT22;4779;48.062;11.672;2023-03-14T06:15:06;7.70;99.90
9482;DHT22;4779;48.062;11.672;2023-03-14T06:17:33;7.80;99.90
9482;DHT22;4779;48.062;11.672;2023-03-14T06:20:01;7.80;99.90
9482;DHT22;4779;48.062;11.672;2023-03-14T06:22:28;7.80;99.90
9482;DHT22;4779;48.062;11.672;2023-03-14T06:24:55;7.80;99.90
9482;DHT22;4779;48.062;11.672;2023-03-14T06:27:22;7.80;99.90
9482;DHT22;4779;48.062;11.672;2023-03-14T06:29:49;7.80;99.90
9482;DHT22;4779;48.062;11.672;2023-03-14T06:32:16;7.80;99.90
9482;DHT22;4779;48.062;11.672;2023-03-14T06:34:43;7.90;99.90
9482;DHT22;4779;48.062;11.672;2023-03-14T06:37:12;7.90;99.90
9482;DHT22;4779;48.062;11.672;2023-03-14T06:39:38;7.90;99.90
9482;DHT22;4779;48.062;11.672;2023-03-14T06:42:05;8.00;99.90
9482;DHT22;4779;48.062;11.672;2023-03-14T06:44:32;8.00;99.90
9482;DHT22;4779;48.062;11.672;2023-03-14T06:46:59;8.10;99.90
9482;DHT22;4779;48.062;11.672;2023-03-14T06:49:26;8.20;99.90
9482;DHT22;4779;48.062;11.672;2023-03-14T06:51:53;8.20;99.90
9482;DHT22;4779;48.062;11.672;2023-03-14T06:54:21;8.20;99.90
9482;DHT22;4779;48.062;11.672;2023-03-14T06:56:48;8.30;99.90
9482;DHT22;4779;48.062;11.672;2023-03-14T06:59:15;8.40;99.90
9482;DHT22;4779;48.062;11.672;2023-03-14T07:01:42;8.30;99.90
9482;DHT22;4779;48.062;11.672;2023-03-14T07:04:09;8.30;99.90
9482;DHT22;4779;48.062;11.672;2023-03-14T07:06:36;8.30;99.90
9482;DHT22;4779;48.062;11.672;2023-03-14T07:09:05;8.20;99.90
9482;DHT22;4779;48.062;11.672;2023-03-14T07:11:33;8.20;99.90
9482;DHT22;4779;48.062;11.672;2023-03-14T07:14:00;8.20;99.90
9482;DHT22;4779;48.062;11.672;2023-03-14T07:16:27;8.30;99.90
9482;DHT22;4779;48.062;11.672;2023-03-14T07:18:56;8.20;99.90
9482;DHT22;4779;48.062;11.672;2023-03-14T07:21:23;8.30;99.90
9482;DHT22;4779;48.062;11.672;2023-03-14T07:23:50;8.30;99.90
9482;DHT22;4779;48.062;11.672;2023-03-14T07:26:17;8.30;99.90
9482;DHT22;4779;48.062;11.672;2023-03-14T07:28:45;8.20;99.90
9482;DHT22;4779;48.062;11.672;2023-03-14T07:31:13;8.20;99.90
9482;DHT22;4779;48.062;11.672;2023-03-14T07:33:39;8.20;99.90
9482;DHT22;4779;48.062;11.672;2023-03-14T07:36:07;8.20;99.90
9482;DHT22;4779;48.062;11.672;2023-03-14T07:38:34;8.30;99.90
9482;DHT22;4779;48.062;11.672;2023-03-14T07:41:03;8.40;99.90
9482;DHT22;4779;48.062;11.672;2023-03-14T07:43:30;8.40;99.90
9482;DHT22;4779;48.062;11.672;2023-03-14T07:45:59;8.50;99.90
9482;DHT22;4779;48.062;11.672;2023-03-14T07:48:26;8.50;99.90
9482;DHT22;4779;48.062;11.672;2023-03-14T07:50:53;8.70;99.90
9482;DHT22;4779;48.062;11.672;2023-03-14T07:53:21;8.70;99.90
9482;DHT22;4779;48.062;11.672;2023-03-14T07:55:50;8.70;99.90
9482;DHT22;4779;48.062;11.672;2023-03-14T07:58:17;8.70;99.90
9482;DHT22;4779;48.062;11.672;2023-03-14T08:00:44;8.80;99.90
9482;DHT22;4779;48.062;11.672;2023-03-14T08:03:12;8.90;99.90
9482;DHT22;4779;48.062;11.672;2023-03-14T08:05:39;9.00;99.90
9482;DHT22;4779;48.062;11.672;2023-03-14T08:08:07;9.00;99.90
9482;DHT22;4779;48.062;11.672;2023-03-14T08:10:34;9.10;99.90
9482;DHT22;4779;48.062;11.672;2023-03-14T08:13:01;9.10;99.90
9482;DHT22;4779;48.062;11.672;2023-03-14T08:15:29;9.10;99.90
9482;DHT22;4779;48.062;11.672;2023-03-14T08:17:56;9.20;99.90
9482;DHT22;4779;48.062;11.672;2023-03-14T08:20:26;9.20;99.90
9482;DHT22;4779;48.062;11.672;2023-03-14T08:22:55;9.20;99.90
9482;DHT22;4779;48.062;11.672;2023-03-14T08:25:23;9.20;99.90
9482;DHT22;4779;48.062;11.672;2023-03-14T08:27:50;9.20;99.90
9482;DHT22;4779;48.062;11.672;2023-03-14T08:30:18;9.30;99.90
9482;DHT22;4779;48.062;11.672;2023-03-14T08:32:45;9.30;99.90
9482;DHT22;4779;48.062;11.672;2023-03-14T08:35:12;9.40;99.90
9482;DHT22;4779;48.062;11.672;2023-03-14T08:37:41;9.40;99.90
9482;DHT22;4779;48.062;11.672;2023-03-14T08:40:09;9.40;99.90
9482;DHT22;4779;48.062;11.672;2023-03-14T08:42:37;9.40;99.90
9482;DHT22;4779;48.062;11.672;2023-03-14T08:45:06;9.40;99.90
9482;DHT22;4779;48.062;11.672;2023-03-14T08:47:33;9.40;99.90
9482;DHT22;4779;48.062;11.672;2023-03-14T08:50:00;9.40;99.90
9482;DHT22;4779;48.062;11.672;2023-03-14T08:52:27;9.40;99.90
9482;DHT22;4779;48.062;11.672;2023-03-14T08:54:55;9.50;99.90
9482;DHT22;4779;48.062;11.672;2023-03-14T08:57:22;9.40;99.90
9482;DHT22;4779;48.062;11.672;2023-03-14T08:59:52;9.30;99.90
9482;DHT22;4779;48.062;11.672;2023-03-14T09:02:19;9.40;99.90
9482;DHT22;4779;48.062;11.672;2023-03-14T09:04:46;9.30;99.90
9482;DHT22;4779;48.062;11.672;2023-03-14T09:07:13;9.30;99.90
9482;DHT22;4779;48.062;11.672;2023-03-14T09:09:40;9.20;99.90
9482;DHT22;4779;48.062;11.672;2023-03-14T09:12:08;9.20;99.90
9482;DHT22;4779;48.062;11.672;2023-03-14T09:14:36;9.20;99.90
9482;DHT22;4779;48.062;11.672;2023-03-14T09:17:04;9.20;99.90
9482;DHT22;4779;48.062;11.672;2023-03-14T09:19:31;9.20;99.90
9482;DHT22;4779;48.062;11.672;2023-03-14T09:21:58;9.20;99.90
9482;DHT22;4779;48.062;11.672;2023-03-14T09:24:25;9.30;99.90
9482;DHT22;4779;48.062;11.672;2023-03-14T09:26:52;9.30;99.90
9482;DHT22;4779;48.062;11.672;2023-03-14T09:29:20;9.20;99.90
9482;DHT22;4779;48.062;11.672;2023-03-14T09:31:47;9.30;99.90
9482;DHT22;4779;48.062;11.672;2023-03-14T09:34:14;9.20;99.90
9482;DHT22;4779;48.062;11.672;2023-03-14T09:36:40;9.20;99.90
9482;DHT22;4779;48.062;11.672;2023-03-14T09:39:09;9.20;99.90
9482;DHT22;4779;48.062;11.672;2023-03-14T09:41:38;9.20;99.90
9482;DHT22;4779;48.062;11.672;2023-03-14T09:44:10;9.10;99.90
9482;DHT22;4779;48.062;11.672;2023-03-14T09:46:41;9.10;99.90
9482;DHT22;4779;48.062;11.672;2023-03-14T09:49:11;9.10;99.90
9482;DHT22;4779;48.062;11.672;2023-03-14T09:51:40;9.20;99.90
9482;DHT22;4779;48.062;11.672;2023-03-14T09:54:17;9.20;99.90
9482;DHT22;4779;48.062;11.672;2023-03-14T09:56:48;9.20;99.90
9482;DHT22;4779;48.062;11.672;2023-03-14T09:59:16;9.20;99.90
9482;DHT22;4779;48.062;11.672;2023-03-14T10:01:44;9.20;99.90
9482;DHT22;4779;48.062;11.672;2023-03-14T10:04:15;9.30;99.90
9482;DHT22;4779;48.062;11.672;2023-03-14T10:06:43;9.30;99.90
9482;DHT22;4779;48.062;11.672;2023-03-14T10:09:17;9.30;99.90
9482;DHT22;4779;48.062;11.672;2023-03-14T10:11:54;9.40;99.90
9482;DHT22;4779;48.062;11.672;2023-03-14T10:14:33;9.40;99.90
9482;DHT22;4779;48.062;11.672;2023-03-14T10:17:10;9.60;99.90
9482;DHT22;4779;48.062;11.672;2023-03-14T10:19:37;9.70;99.90
9482;DHT22;4779;48.062;11.672;2023-03-14T10:22:05;9.80;99.90
9482;DHT22;4779;48.062;11.672;2023-03-14T10:24:33;9.90;99.90
9482;DHT22;4779;48.062;11.672;2023-03-14T10:27:03;10.10;99.90
9482;DHT22;4779;48.062;11.672;2023-03-14T10:29:31;10.20;99.90
9482;DHT22;4779;48.062;11.672;2023-03-14T10:32:00;10.40;99.90
9482;DHT22;4779;48.062;11.672;2023-03-14T10:34:30;10.60;99.90
9482;DHT22;4779;48.062;11.672;2023-03-14T10:36:58;11.00;99.90
9482;DHT22;4779;48.062;11.672;2023-03-14T10:39:37;11.40;99.90
9482;DHT22;4779;48.062;11.672;2023-03-14T10:42:15;11.70;99.90
9482;DHT22;4779;48.062;11.672;2023-03-14T10:44:44;11.70;99.90
9482;DHT22;4779;48.062;11.672;2023-03-14T10:47:21;11.70;99.90
9482;DHT22;4779;48.062;11.672;2023-03-14T10:49:50;12.10;99.90
9482;DHT22;4779;48.062;11.672;2023-03-14T10:52:22;12.50;99.90
9482;DHT22;4779;48.062;11.672;2023-03-14T10:54:54;12.80;99.90
9482;DHT22;4779;48.062;11.672;2023-03-14T10:57:23;13.00;99.90
9482;DHT22;4779;48.062;11.672;2023-03-14T10:59:51;13.00;99.90
9482;DHT22;4779;48.062;11.672;2023-03-14T11:02:43;12.90;99.90
9482;DHT22;4779;48.062;11.672;2023-03-14T11:05:25;12.70;99.90
9482;DHT22;4779;48.062;11.672;2023-03-14T11:07:58;12.60;99.90
9482;DHT22;4779;48.062;11.672;2023-03-14T11:10:32;12.40;99.90
9482;DHT22;4779;48.062;11.672;2023-03-14T11:13:12;12.50;99.90
9482;DHT22;4779;48.062;11.672;2023-03-14T11:15:49;12.60;99.90
9482;DHT22;4779;48.062;11.672;2023-03-14T11:18:58;12.70;99.90
9482;DHT22;4779;48.062;11.672;2023-03-14T11:21:33;12.50;99.90
9482;DHT22;4779;48.062;11.672;2023-03-14T11:24:38;12.30;99.90
9482;DHT22;4779;48.062;11.672;2023-03-14T11:27:16;12.10;99.90
9482;DHT22;4779;48.062;11.672;2023-03-14T11:29:50;11.80;99.90
9482;DHT22;4779;48.062;11.672;2023-03-14T11:32:36;11.80;99.90
9482;DHT22;4779;48.062;11.672;2023-03-14T11:35:16;11.80;99.90
9482;DHT22;4779;48.062;11.672;2023-03-14T11:37:47;11.90;99.90
9482;DHT22;4779;48.062;11.672;2023-03-14T11:40:20;11.90;99.90
9482;DHT22;4779;48.062;11.672;2023-03-14T11:42:53;12.00;99.90
9482;DHT22;4779;48.062;11.672;2023-03-14T11:45:25;12.20;99.90
9482;DHT22;4779;48.062;11.672;2023-03-14T11:47:56;12.40;99.90
9482;DHT22;4779;48.062;11.672;2023-03-14T11:50:27;12.60;99.90
9482;DHT22;4779;48.062;11.672;2023-03-14T11:53:03;12.80;99.90
9482;DHT22;4779;48.062;11.672;2023-03-14T11:55:33;13.00;99.90
9482;DHT22;4779;48.062;11.672;2023-03-14T11:58:03;13.00;99.90
9482;DHT22;4779;48.062;11.672;2023-03-14T12:00:30;12.90;99.70
9482;DHT22;4779;48.062;11.672;2023-03-14T12:03:00;12.80;99.90
9482;DHT22;4779;48.062;11.672;2023-03-14T12:05:39;12.60;99.90
9482;DHT22;4779;48.062;11.672;2023-03-14T12:08:29;12.50;99.60
9482;DHT22;4779;48.062;11.672;2023-03-14T12:11:02;12.50;99.90
9482;DHT22;4779;48.062;11.672;2023-03-14T12:13:33;12.60;98.90
9482;DHT22;4779;48.062;11.672;2023-03-14T12:16:05;12.80;99.90
9482;DHT22;4779;48.062;11.672;2023-03-14T12:18:34;12.80;98.00
9482;DHT22;4779;48.062;11.672;2023-03-14T12:21:05;12.80;98.80
9482;DHT22;4779;48.062;11.672;2023-03-14T12:23:37;12.90;99.00
9482;DHT22;4779;48.062;11.672;2023-03-14T12:26:13;13.20;99.90
9482;DHT22;4779;48.062;11.672;2023-03-14T12:28:43;13.40;98.80
9482;DHT22;4779;48.062;11.672;2023-03-14T12:31:41;13.40;98.80
9482;DHT22;4779;48.062;11.672;2023-03-14T12:34:31;13.10;98.30
9482;DHT22;4779;48.062;11.672;2023-03-14T12:37:05;13.00;99.00
9482;DHT22;4779;48.062;11.672;2023-03-14T12:39:45;12.90;98.50
9482;DHT22;4779;48.062;11.672;2023-03-14T12:42:20;12.90;98.70
9482;DHT22;4779;48.062;11.672;2023-03-14T12:44:49;13.00;99.20
9482;DHT22;4779;48.062;11.672;2023-03-14T12:47:42;13.00;99.00
9482;DHT22;4779;48.062;11.672;2023-03-14T12:50:16;12.80;98.90
9482;DHT22;4779;48.062;11.672;2023-03-14T12:52:58;12.70;98.60
9482;DHT22;4779;48.062;11.672;2023-03-14T12:55:35;12.60;99.60
9482;DHT22;4779;48.062;11.672;2023-03-14T12:58:09;12.70;99.30
9482;DHT22;4779;48.062;11.672;2023-03-14T13:00:40;12.90;98.80
9482;DHT22;4779;48.062;11.672;2023-03-14T13:03:18;13.10;99.20
9482;DHT22;4779;48.062;11.672;2023-03-14T13:05:55;13.20;99.50
9482;DHT22;4779;48.062;11.672;2023-03-14T13:08:38;13.20;98.70
9482;DHT22;4779;48.062;11.672;2023-03-14T13:11:09;13.00;99.00
9482;DHT22;4779;48.062;11.672;2023-03-14T13:13:42;13.10;99.40
9482;DHT22;4779;48.062;11.672;2023-03-14T13:16:15;12.90;99.10
9482;DHT22;4779;48.062;11.672;2023-03-14T13:18:44;12.50;98.60
9482;DHT22;4779;48.062;11.672;2023-03-14T13:21:14;12.40;99.90
9482;DHT22;4779;48.062;11.672;2023-03-14T13:23:54;12.30;99.80
9482;DHT22;4779;48.062;11.672;2023-03-14T13:26:25;12.20;99.80
9482;DHT22;4779;48.062;11.672;2023-03-14T13:28:58;12.10;99.90
9482;DHT22;4779;48.062;11.672;2023-03-14T13:31:25;12.00;99.90
9482;DHT22;4779;48.062;11.672;2023-03-14T13:33:59;11.90;99.90
9482;DHT22;4779;48.062;11.672;2023-03-14T13:36:27;11.90;99.90
9482;DHT22;4779;48.062;11.672;2023-03-14T13:38:58;11.80;99.90
9482;DHT22;4779;48.062;11.672;2023-03-14T13:41:27;11.80;99.90
9482;DHT22;4779;48.062;11.672;2023-03-14T13:44:01;11.70;99.90
9482;DHT22;4779;48.062;11.672;2023-03-14T13:46:29;11.60;99.90
9482;DHT22;4779;48.062;11.672;2023-03-14T13:48:58;11.30;99.90
9482;DHT22;4779;48.062;11.672;2023-03-14T13:51:26;11.20;99.90
9482;DHT22;4779;48.062;11.672;2023-03-14T13:53:57;11.10;99.90
9482;DHT22;4779;48.062;11.672;2023-03-14T13:56:27;10.90;99.90
9482;DHT22;4779;48.062;11.672;2023-03-14T13:58:55;10.80;99.90
9482;DHT22;4779;48.062;11.672;2023-03-14T14:01:24;10.70;99.90
9482;DHT22;4779;48.062;11.672;2023-03-14T14:03:55;10.40;99.90
9482;DHT22;4779;48.062;11.672;2023-03-14T14:06:28;10.20;99.90
9482;DHT22;4779;48.062;11.672;2023-03-14T14:08:56;9.90;99.90
9482;DHT22;4779;48.062;11.672;2023-03-14T14:11:35;9.50;99.90
9482;DHT22;4779;48.062;11.672;2023-03-14T14:14:06;9.30;99.90
9482;DHT22;4779;48.062;11.672;2023-03-14T14:16:35;9.20;99.90
9482;DHT22;4779;48.062;11.672;2023-03-14T14:19:02;9.20;99.90
9482;DHT22;4779;48.062;11.672;2023-03-14T14:21:29;9.10;99.90
9482;DHT22;4779;48.062;11.672;2023-03-14T14:23:57;9.10;99.90
9482;DHT22;4779;48.062;11.672;2023-03-14T14:26:27;8.90;99.90
9482;DHT22;4779;48.062;11.672;2023-03-14T14:29:02;8.90;99.90
9482;DHT22;4779;48.062;11.672;2023-03-14T14:31:29;8.80;99.90
9482;DHT22;4779;48.062;11.672;2023-03-14T14:33:58;8.70;99.90
9482;DHT22;4779;48.062;11.672;2023-03-14T14:36:28;8.50;99.90
9482;DHT22;4779;48.062;11.672;2023-03-14T14:39:00;8.40;99.90
9482;DHT22;4779;48.062;11.672;2023-03-14T14:41:33;8.20;99.90
9482;DHT22;4779;48.062;11.672;2023-03-14T14:44:03;8.10;99.90
9482;DHT22;4779;48.062;11.672;2023-03-14T14:46:32;8.00;99.90
9482;DHT22;4779;48.062;11.672;2023-03-14T14:49:04;7.80;99.90
9482;DHT22;4779;48.062;11.672;2023-03-14T14:51:33;7.80;99.90
9482;DHT22;4779;48.062;11.672;2023-03-14T14:54:19;7.70;99.90
9482;DHT22;4779;48.062;11.672;2023-03-14T14:56:49;7.70;99.90
9482;DHT22;4779;48.062;11.672;2023-03-14T14:59:23;7.70;99.90
9482;DHT22;4779;48.062;11.672;2023-03-14T15:01:55;7.70;99.90
9482;DHT22;4779;48.062;11.672;2023-03-14T15:04:23;7.60;99.90
9482;DHT22;4779;48.062;11.672;2023-03-14T15:06:52;7.60;99.90
9482;DHT22;4779;48.062;11.672;2023-03-14T15:09:19;7.50;99.90
9482;DHT22;4779;48.062;11.672;2023-03-14T15:11:48;7.70;99.90
9482;DHT22;4779;48.062;11.672;2023-03-14T15:14:15;7.60;99.90
9482;DHT22;4779;48.062;11.672;2023-03-14T15:16:42;7.60;99.90
9482;DHT22;4779;48.062;11.672;2023-03-14T15:19:12;7.70;99.90
9482;DHT22;4779;48.062;11.672;2023-03-14T15:21:41;7.70;99.90
9482;DHT22;4779;48.062;11.672;2023-03-14T15:24:09;7.80;99.90
9482;DHT22;4779;48.062;11.672;2023-03-14T15:26:36;7.80;99.90
9482;DHT22;4779;48.062;11.672;2023-03-14T15:29:05;7.90;99.90
9482;DHT22;4779;48.062;11.672;2023-03-14T15:31:33;7.90;99.90
9482;DHT22;4779;48.062;11.672;2023-03-14T15:34:01;7.80;99.90
9482;DHT22;4779;48.062;11.672;2023-03-14T15:36:29;7.70;99.90
9482;DHT22;4779;48.062;11.672;2023-03-14T15:38:56;7.70;99.90
9482;DHT22;4779;48.062;11.672;2023-03-14T15:41:24;7.80;99.90
9482;DHT22;4779;48.062;11.672;2023-03-14T15:43:51;7.80;99.90
9482;DHT22;4779;48.062;11.672;2023-03-14T15:46:20;7.80;99.90
9482;DHT22;4779;48.062;11.672;2023-03-14T15:48:47;7.70;99.90
9482;DHT22;4779;48.062;11.672;2023-03-14T15:51:15;7.80;99.90
9482;DHT22;4779;48.062;11.672;2023-03-14T15:53:42;7.80;99.90
9482;DHT22;4779;48.062;11.672;2023-03-14T15:56:12;8.00;99.90
9482;DHT22;4779;48.062;11.672;2023-03-14T15:58:39;7.90;99.90
9482;DHT22;4779;48.062;11.672;2023-03-14T16:01:06;7.90;99.90
9482;DHT22;4779;48.062;11.672;2023-03-14T16:03:36;7.90;99.90
9482;DHT22;4779;48.062;11.672;2023-03-14T16:06:03;7.80;99.90
9482;DHT22;4779;48.062;11.672;2023-03-14T16:08:30;7.80;99.90
9482;DHT22;4779;48.062;11.672;2023-03-14T16:10:58;7.80;99.90
9482;DHT22;4779;48.062;11.672;2023-03-14T16:13:25;7.80;99.90
9482;DHT22;4779;48.062;11.672;2023-03-14T16:15:54;7.80;99.90
9482;DHT22;4779;48.062;11.672;2023-03-14T16:18:21;7.80;99.90
9482;DHT22;4779;48.062;11.672;2023-03-14T16:20:55;7.70;99.90
9482;DHT22;4779;48.062;11.672;2023-03-14T16:23:22;7.60;99.90
9482;DHT22;4779;48.062;11.672;2023-03-14T16:25:49;7.50;99.90
9482;DHT22;4779;48.062;11.672;2023-03-14T16:28:17;7.40;99.90
9482;DHT22;4779;48.062;11.672;2023-03-14T16:30:44;7.50;99.90
9482;DHT22;4779;48.062;11.672;2023-03-14T16:33:12;7.60;99.90
9482;DHT22;4779;48.062;11.672;2023-03-14T16:35:39;7.60;99.90
9482;DHT22;4779;48.062;11.672;2023-03-14T16:38:08;7.60;99.90
9482;DHT22;4779;48.062;11.672;2023-03-14T16:40:35;7.60;99.90
9482;DHT22;4779;48.062;11.672;2023-03-14T16:43:02;7.60;99.90
9482;DHT22;4779;48.062;11.672;2023-03-14T16:45:29;7.30;99.90
9482;DHT22;4779;48.062;11.672;2023-03-14T16:47:56;7.20;99.90
9482;DHT22;4779;48.062;11.672;2023-03-14T16:50:23;7.20;99.90
9482;DHT22;4779;48.062;11.672;2023-03-14T16:52:50;7.00;99.90
9482;DHT22;4779;48.062;11.672;2023-03-14T16:55:21;6.90;99.90
9482;DHT22;4779;48.062;11.672;2023-03-14T16:57:48;6.70;99.90
9482;DHT22;4779;48.062;11.672;2023-03-14T17:00:15;6.60;99.90
9482;DHT22;4779;48.062;11.672;2023-03-14T17:02:42;6.40;99.90
9482;DHT22;4779;48.062;11.672;2023-03-14T17:05:09;6.40;99.90
9482;DHT22;4779;48.062;11.672;2023-03-14T17:07:36;6.30;99.90